createdAt,value
2022-08-18T00:01:33.170Z,19.26
2022-08-18T00:04:03.431Z,19.24
2022-08-18T00:06:30.574Z,19.22
2022-08-18T00:08:59.479Z,19.19
2022-08-18T00:11:27.232Z,19.16
2022-08-18T00:13:53.782Z,19.14
2022-08-18T00:16:20.614Z,19.13
2022-08-18T00:18:47.272Z,19.11
2022-08-18T00:21:13.809Z,19.08
2022-08-18T00:23:40.307Z,19.06
2022-08-18T00:26:06.896Z,19.03
2022-08-18T00:28:33.484Z,19.04
2022-08-18T00:31:00.103Z,19.05
2022-08-18T00:33:26.679Z,19.01
2022-08-18T00:35:53.383Z,18.95
2022-08-18T00:38:25.010Z,18.91
2022-08-18T00:40:55.655Z,18.88
2022-08-18T00:43:32.725Z,18.86
2022-08-18T00:45:59.275Z,18.84
2022-08-18T00:48:26.276Z,18.80
2022-08-18T00:50:54.464Z,18.79
2022-08-18T00:53:30.460Z,18.77
2022-08-18T00:56:01.993Z,18.74
2022-08-18T00:58:35.883Z,18.72
2022-08-18T01:01:05.870Z,18.69
2022-08-18T01:03:34.174Z,18.68
2022-08-18T01:06:07.179Z,18.66
2022-08-18T01:08:33.796Z,18.66
2022-08-18T01:11:02.823Z,18.67
2022-08-18T01:13:32.978Z,18.65
2022-08-18T01:16:21.039Z,18.65
2022-08-18T01:19:06.431Z,18.63
2022-08-18T01:21:51.905Z,18.61
2022-08-18T01:24:22.137Z,18.60
2022-08-18T01:26:52.093Z,18.57
2022-08-18T01:29:19.890Z,18.56
2022-08-18T01:31:56.093Z,18.56
2022-08-18T01:34:26.345Z,18.55
2022-08-18T01:36:55.203Z,18.53
2022-08-18T01:41:17.570Z,18.51
2022-08-18T01:42:09.533Z,18.51
2022-08-18T01:44:36.537Z,18.51
2022-08-18T01:47:03.705Z,18.51
2022-08-18T01:49:30.285Z,18.49
2022-08-18T01:51:56.816Z,18.48
2022-08-18T01:54:23.360Z,18.49
2022-08-18T01:56:50.215Z,18.50
2022-08-18T01:59:16.801Z,18.51
2022-08-18T02:01:50.380Z,18.51
2022-08-18T02:04:35.232Z,18.50
2022-08-18T02:07:04.736Z,18.50
2022-08-18T02:09:31.286Z,18.50
2022-08-18T02:11:57.886Z,18.50
2022-08-18T02:14:26.921Z,18.50
2022-08-18T02:17:01.903Z,18.50
2022-08-18T02:19:33.579Z,18.52
2022-08-18T02:22:00.412Z,18.51
2022-08-18T02:24:26.949Z,18.48
2022-08-18T02:26:53.604Z,18.45
2022-08-18T02:29:20.159Z,18.43
2022-08-18T02:31:46.674Z,18.41
2022-08-18T02:34:13.140Z,18.43
2022-08-18T02:36:39.640Z,18.43
2022-08-18T02:39:06.129Z,18.41
2022-08-18T02:41:33.108Z,18.38
2022-08-18T02:44:00.218Z,18.35
2022-08-18T02:46:29.881Z,18.33
2022-08-18T02:48:59.111Z,18.30
2022-08-18T02:51:26.124Z,18.27
2022-08-18T02:53:54.084Z,18.26
2022-08-18T02:56:32.741Z,18.27
2022-08-18T02:59:10.762Z,18.26
2022-08-18T03:01:40.797Z,18.27
2022-08-18T03:04:10.098Z,18.28
2022-08-18T03:06:38.105Z,18.26
2022-08-18T03:09:06.565Z,18.23
2022-08-18T03:11:33.138Z,18.22
2022-08-18T03:14:00.480Z,18.20
2022-08-18T03:16:27.316Z,18.18
2022-08-18T03:18:54.525Z,18.15
2022-08-18T03:21:23.526Z,18.11
2022-08-18T03:24:01.558Z,18.09
2022-08-18T03:26:30.306Z,18.06
2022-08-18T03:28:58.277Z,18.04
2022-08-18T03:31:27.965Z,18.02
2022-08-18T03:33:59.233Z,18.00
2022-08-18T03:36:31.854Z,17.98
2022-08-18T03:39:01.851Z,17.96
2022-08-18T03:41:58.969Z,17.92
2022-08-18T03:44:16.338Z,17.90
2022-08-18T03:46:45.357Z,17.89
2022-08-18T03:49:12.708Z,17.88
2022-08-18T03:51:48.893Z,17.86
2022-08-18T03:54:18.727Z,17.84
2022-08-18T03:56:46.690Z,17.83
2022-08-18T03:59:18.041Z,17.85
2022-08-18T04:01:46.335Z,17.84
2022-08-18T04:04:16.237Z,17.83
2022-08-18T04:06:51.127Z,17.81
2022-08-18T04:09:18.703Z,17.79
2022-08-18T04:11:46.283Z,17.79
2022-08-18T04:14:15.322Z,17.79
2022-08-18T04:16:42.183Z,17.79
2022-08-18T04:19:09.862Z,17.77
2022-08-18T04:21:39.767Z,17.76
2022-08-18T04:24:08.096Z,17.74
2022-08-18T04:26:43.263Z,17.73
2022-08-18T04:29:11.006Z,17.72
2022-08-18T04:31:37.684Z,17.71
2022-08-18T04:34:05.819Z,17.71
2022-08-18T04:36:34.610Z,17.72
2022-08-18T04:39:02.864Z,17.74
2022-08-18T04:41:29.625Z,17.76
2022-08-18T04:44:01.400Z,17.76
2022-08-18T04:46:29.047Z,17.78
2022-08-18T04:48:58.948Z,17.80
2022-08-18T04:52:31.038Z,17.82
2022-08-18T04:54:16.032Z,17.85
2022-08-18T04:56:42.820Z,17.88
2022-08-18T04:59:12.691Z,17.91
2022-08-18T05:01:47.902Z,17.96
2022-08-18T05:04:17.609Z,18.01
2022-08-18T05:06:45.688Z,18.07
2022-08-18T05:09:16.780Z,18.13
2022-08-18T05:11:50.627Z,18.21
2022-08-18T05:14:18.049Z,18.30
2022-08-18T05:16:48.164Z,18.38
2022-08-18T05:19:22.131Z,18.45
2022-08-18T05:21:51.318Z,18.53
2022-08-18T05:24:18.999Z,18.59
2022-08-18T05:26:46.058Z,18.67
2022-08-18T05:29:18.905Z,18.73
2022-08-18T05:31:47.680Z,18.78
2022-08-18T05:34:14.538Z,18.82
2022-08-18T05:36:46.903Z,18.86
2022-08-18T05:39:19.491Z,18.92
2022-08-18T05:42:11.186Z,18.98
2022-08-18T05:44:43.013Z,19.03
2022-08-18T05:47:30.446Z,19.08
2022-08-18T05:50:05.280Z,19.12
2022-08-18T05:52:52.998Z,19.19
2022-08-18T05:55:58.083Z,19.27
2022-08-18T05:58:51.777Z,19.32
2022-08-18T06:01:41.732Z,19.40
2022-08-18T06:04:24.794Z,19.46
2022-08-18T06:06:57.338Z,19.54
2022-08-18T06:09:36.834Z,19.61
2022-08-18T06:12:19.508Z,19.68
2022-08-18T06:14:46.229Z,19.76
2022-08-18T06:17:35.681Z,19.83
2022-08-18T06:20:14.242Z,19.93
2022-08-18T06:22:58.402Z,20.02
2022-08-18T06:25:46.612Z,20.09
2022-08-18T06:28:16.134Z,20.16
2022-08-18T06:30:42.714Z,20.23
2022-08-18T06:33:31.636Z,20.30
2022-08-18T06:36:13.152Z,20.35
2022-08-18T06:38:58.589Z,20.40
2022-08-18T06:41:43.940Z,20.44
2022-08-18T06:44:13.719Z,20.51
2022-08-18T06:46:56.024Z,20.55
2022-08-18T06:49:46.585Z,20.60
2022-08-18T06:52:37.198Z,20.69
2022-08-18T06:55:13.964Z,20.75
2022-08-18T06:57:57.977Z,20.80
2022-08-18T07:00:32.697Z,20.87
2022-08-18T07:03:14.448Z,20.96
2022-08-18T07:06:04.645Z,21.03
2022-08-18T07:08:43.318Z,21.09
2022-08-18T07:11:34.622Z,21.18
2022-08-18T07:14:21.501Z,21.25
2022-08-18T07:16:59.024Z,21.30
2022-08-18T07:19:29.943Z,21.36
2022-08-18T07:22:08.241Z,21.53
2022-08-18T07:24:46.830Z,21.62
2022-08-18T07:27:22.650Z,21.66
2022-08-18T07:30:15.435Z,21.68
2022-08-18T07:32:51.355Z,21.73
2022-08-18T07:35:28.045Z,21.80
2022-08-18T07:38:38.499Z,21.86
2022-08-18T07:41:02.272Z,21.93
2022-08-18T07:43:46.264Z,22.02
2022-08-18T07:46:19.283Z,22.11
2022-08-18T07:48:46.821Z,22.30
2022-08-18T07:51:30.411Z,22.50
2022-08-18T07:54:47.233Z,22.72
2022-08-18T07:57:19.815Z,22.92
2022-08-18T07:59:54.535Z,23.05
2022-08-18T08:02:40.316Z,23.10
2022-08-18T08:05:35.584Z,23.12
2022-08-18T08:08:15.943Z,23.12
2022-08-18T08:11:08.699Z,23.38
2022-08-18T08:13:59.876Z,23.63
2022-08-18T08:16:37.450Z,23.79
2022-08-18T08:19:31.469Z,23.87
2022-08-18T08:22:19.477Z,23.92
2022-08-18T08:25:17.644Z,23.93
2022-08-18T08:28:07.703Z,23.89
2022-08-18T08:30:42.268Z,23.86
2022-08-18T08:33:27.014Z,23.84
2022-08-18T08:36:04.491Z,23.79
2022-08-18T08:38:45.031Z,23.73
2022-08-18T08:41:40.880Z,23.61
2022-08-18T08:44:23.964Z,23.54
2022-08-18T08:47:03.145Z,23.45
2022-08-18T08:49:41.768Z,23.31
2022-08-18T08:52:29.959Z,23.19
2022-08-18T08:55:03.987Z,23.13
2022-08-18T08:57:38.156Z,23.08
2022-08-18T09:00:10.264Z,23.11
2022-08-18T09:02:48.989Z,23.18
2022-08-18T09:05:25.383Z,23.34
2022-08-18T09:08:03.006Z,23.46
2022-08-18T09:10:59.994Z,23.42
2022-08-18T09:14:05.270Z,23.35
2022-08-18T09:16:46.952Z,23.33
2022-08-18T09:19:45.187Z,23.35
2022-08-18T09:22:32.805Z,23.28
2022-08-18T09:25:00.025Z,23.34
2022-08-18T09:28:07.314Z,23.31
2022-08-18T09:30:42.644Z,23.29
2022-08-18T09:33:19.616Z,23.33
2022-08-18T09:36:10.104Z,23.35
2022-08-18T09:39:05.909Z,23.36
2022-08-18T09:41:37.980Z,23.38
2022-08-18T09:44:21.299Z,23.39
2022-08-18T09:46:55.835Z,23.40
2022-08-18T09:49:22.375Z,23.46
2022-08-18T09:52:21.268Z,23.53
2022-08-18T09:54:52.214Z,23.67
2022-08-18T09:57:22.504Z,23.75
2022-08-18T10:02:36.980Z,23.84
2022-08-18T10:05:15.932Z,23.93
2022-08-18T10:07:54.246Z,24.10
2022-08-18T10:13:32.403Z,24.58
2022-08-18T10:16:28.086Z,24.72
2022-08-18T10:19:16.494Z,24.75
2022-08-18T10:21:58.512Z,24.75
2022-08-18T10:24:37.432Z,24.76
2022-08-18T10:27:13.470Z,24.81
2022-08-18T10:29:48.132Z,24.92
2022-08-18T10:32:15.274Z,25.00
2022-08-18T10:34:55.349Z,25.05
2022-08-18T10:37:44.475Z,25.10
2022-08-18T10:40:14.133Z,25.18
2022-08-18T10:42:56.628Z,25.18
2022-08-18T10:45:34.496Z,25.13
2022-08-18T10:48:11.838Z,25.14
2022-08-18T10:50:54.358Z,25.13
2022-08-18T10:53:38.825Z,25.16
2022-08-18T10:56:31.884Z,25.19
2022-08-18T10:59:15.931Z,25.27
2022-08-18T11:02:02.684Z,25.41
2022-08-18T11:04:41.050Z,25.44
2022-08-18T11:07:15.867Z,25.47
2022-08-18T11:09:57.291Z,25.63
2022-08-18T11:13:04.566Z,25.89
2022-08-18T11:15:58.227Z,26.11
2022-08-18T11:18:43.501Z,26.15
2022-08-18T11:21:32.916Z,26.15
2022-08-18T11:24:03.960Z,26.13
2022-08-18T11:26:31.798Z,26.13
2022-08-18T11:28:58.267Z,25.99
2022-08-18T11:31:24.968Z,25.93
2022-08-18T11:33:54.454Z,25.98
2022-08-18T11:36:30.774Z,26.16
2022-08-18T11:38:57.770Z,26.15
2022-08-18T11:41:48.091Z,26.09
2022-08-18T11:44:21.013Z,25.99
2022-08-18T11:46:52.164Z,25.91
2022-08-18T11:49:33.737Z,25.83
2022-08-18T11:52:05.763Z,25.79
2022-08-18T11:57:54.490Z,25.71
2022-08-18T12:00:47.934Z,25.70
2022-08-18T12:03:37.117Z,25.74
2022-08-18T12:06:29.845Z,25.84
2022-08-18T12:09:01.603Z,25.89
2022-08-18T12:14:52.058Z,25.96
2022-08-18T12:17:19.351Z,25.98
2022-08-18T12:19:47.492Z,25.95
2022-08-18T12:22:33.510Z,25.94
2022-08-18T12:25:00.478Z,25.98
2022-08-18T12:27:31.807Z,26.05
2022-08-18T12:30:01.724Z,26.15
2022-08-18T12:32:56.033Z,26.24
2022-08-18T12:35:22.228Z,26.32
2022-08-18T12:38:12.482Z,26.38
2022-08-18T12:40:36.003Z,26.46
2022-08-18T12:43:02.543Z,26.52
2022-08-18T12:45:31.074Z,26.54
2022-08-18T12:47:59.591Z,26.60
2022-08-18T12:50:31.466Z,26.62
2022-08-18T12:53:02.488Z,26.66
2022-08-18T12:55:33.976Z,26.69
2022-08-18T12:58:01.835Z,26.78
2022-08-18T13:00:29.200Z,26.86
2022-08-18T13:02:57.307Z,26.92
2022-08-18T13:05:27.685Z,26.91
2022-08-18T13:08:04.637Z,26.97
2022-08-18T13:10:42.807Z,26.97
2022-08-18T13:13:13.718Z,26.97
2022-08-18T13:15:44.190Z,26.98
2022-08-18T13:18:14.182Z,26.98
2022-08-18T13:20:45.078Z,27.00
2022-08-18T13:23:12.067Z,27.05
2022-08-18T13:25:39.942Z,27.10
2022-08-18T13:28:06.724Z,27.17
2022-08-18T13:30:33.446Z,27.23
2022-08-18T13:33:05.916Z,27.26
2022-08-18T13:35:52.316Z,27.26
2022-08-18T13:38:26.107Z,27.23
2022-08-18T13:40:58.695Z,27.15
2022-08-18T13:43:32.271Z,27.08
2022-08-18T13:45:59.821Z,27.03
2022-08-18T13:48:28.370Z,26.96
2022-08-18T13:50:58.936Z,26.90
2022-08-18T13:53:29.035Z,26.83
2022-08-18T13:55:59.361Z,26.75
2022-08-18T13:58:28.517Z,26.66
2022-08-18T14:01:22.438Z,26.55
2022-08-18T14:03:49.983Z,26.41
2022-08-18T14:06:22.630Z,26.32
2022-08-18T14:08:52.687Z,26.23
2022-08-18T14:11:20.279Z,26.17
2022-08-18T14:13:47.090Z,26.08
2022-08-18T14:16:18.723Z,25.98
2022-08-18T14:19:09.683Z,25.89
2022-08-18T14:22:02.103Z,25.80
2022-08-18T14:24:48.920Z,25.71
2022-08-18T14:27:17.321Z,25.62
2022-08-18T14:29:47.794Z,25.54
2022-08-18T14:32:21.951Z,25.40
2022-08-18T14:35:26.963Z,25.25
2022-08-18T14:37:48.329Z,24.78
2022-08-18T14:40:16.353Z,24.28
2022-08-18T14:42:54.934Z,23.96
2022-08-18T14:45:31.395Z,23.64
2022-08-18T14:48:10.964Z,23.51
2022-08-18T14:50:40.072Z,23.47
2022-08-18T14:53:20.019Z,23.48
2022-08-18T14:55:52.157Z,23.58
2022-08-18T14:58:28.722Z,23.74
2022-08-18T15:00:57.177Z,23.87
2022-08-18T15:03:28.181Z,23.97
2022-08-18T15:05:59.059Z,24.05
2022-08-18T15:08:26.845Z,24.11
2022-08-18T15:10:54.463Z,24.19
2022-08-18T15:13:26.310Z,24.28
2022-08-18T15:15:53.614Z,24.38
2022-08-18T15:18:22.673Z,24.48
2022-08-18T15:21:10.437Z,24.55
2022-08-18T15:24:05.247Z,24.57
2022-08-18T15:26:51.709Z,24.58
2022-08-18T15:29:18.561Z,24.57
2022-08-18T15:31:50.681Z,24.56
2022-08-18T15:34:20.667Z,24.55
2022-08-18T15:36:48.045Z,24.54
2022-08-18T15:39:15.317Z,24.54
2022-08-18T15:44:18.490Z,24.47
2022-08-18T15:46:51.400Z,24.44
2022-08-18T15:49:22.915Z,24.42
2022-08-18T15:51:50.335Z,24.40
2022-08-18T15:54:19.818Z,24.36
2022-08-18T15:56:58.114Z,24.25
2022-08-18T15:59:26.981Z,24.04
2022-08-18T16:02:05.567Z,23.75
2022-08-18T16:04:32.559Z,23.56
2022-08-18T16:06:59.114Z,23.47
2022-08-18T16:09:25.906Z,23.42
2022-08-18T16:11:52.413Z,23.45
2022-08-18T16:14:18.949Z,23.55
2022-08-18T16:16:45.512Z,23.67
2022-08-18T16:19:11.992Z,23.79
2022-08-18T16:21:40.229Z,23.84
2022-08-18T16:24:07.696Z,23.90
2022-08-18T16:26:34.224Z,23.96
2022-08-18T16:29:01.971Z,24.02
2022-08-18T16:31:29.830Z,24.05
2022-08-18T16:33:58.134Z,24.08
2022-08-18T16:36:28.015Z,24.10
2022-08-18T16:38:56.061Z,24.13
2022-08-18T16:41:26.259Z,24.16
2022-08-18T16:43:52.771Z,24.18
2022-08-18T16:46:26.210Z,24.18
2022-08-18T16:48:54.566Z,24.17
2022-08-18T16:51:23.431Z,24.16
2022-08-18T16:53:52.960Z,24.16
2022-08-18T16:56:29.063Z,24.13
2022-08-18T16:59:14.810Z,24.09
2022-08-18T17:02:01.083Z,24.06
2022-08-18T17:04:33.435Z,24.01
2022-08-18T17:07:02.425Z,24.01
2022-08-18T17:09:29.333Z,24.01
2022-08-18T17:11:56.080Z,23.98
2022-08-18T17:14:25.510Z,23.96
2022-08-18T17:16:56.796Z,23.94
2022-08-18T17:19:25.593Z,23.91
2022-08-18T17:21:52.939Z,23.88
2022-08-18T17:24:31.209Z,23.86
2022-08-18T17:27:26.940Z,23.81
2022-08-18T17:30:16.087Z,23.78
2022-08-18T17:32:49.728Z,23.76
2022-08-18T17:35:28.610Z,23.73
2022-08-18T17:38:32.745Z,23.73
2022-08-18T17:41:00.948Z,23.73
2022-08-18T17:43:33.136Z,23.72
2022-08-18T17:46:27.482Z,23.73
2022-08-18T17:49:03.455Z,23.72
2022-08-18T17:51:43.605Z,23.68
2022-08-18T17:54:21.980Z,23.65
2022-08-18T17:56:53.736Z,23.60
2022-08-18T17:59:51.014Z,23.52
2022-08-18T18:02:29.581Z,23.44
2022-08-18T18:04:58.981Z,23.34
2022-08-18T18:07:27.647Z,23.28
2022-08-18T18:10:17.366Z,23.23
2022-08-18T18:12:43.990Z,23.17
2022-08-18T18:15:13.480Z,23.15
2022-08-18T18:17:43.135Z,23.12
2022-08-18T18:20:41.759Z,23.08
2022-08-18T18:23:16.609Z,23.02
2022-08-18T18:25:43.589Z,23.00
2022-08-18T18:28:35.890Z,22.98
2022-08-18T18:31:25.081Z,22.94
2022-08-18T18:33:57.249Z,22.89
2022-08-18T18:36:41.414Z,22.84
2022-08-18T18:39:22.692Z,22.79
2022-08-18T18:42:29.914Z,22.72
2022-08-18T18:44:59.830Z,22.71
2022-08-18T18:47:32.447Z,22.67
2022-08-18T18:50:06.296Z,22.65
2022-08-18T18:52:57.013Z,22.61
2022-08-18T18:55:26.874Z,22.56
2022-08-18T18:58:14.808Z,22.50
2022-08-18T19:00:54.078Z,22.42
2022-08-18T19:03:34.902Z,22.38
2022-08-18T19:06:14.091Z,22.34
2022-08-18T19:08:43.653Z,22.32
2022-08-18T19:11:19.426Z,22.30
2022-08-18T19:13:59.664Z,22.28
2022-08-18T19:16:37.488Z,22.26
2022-08-18T19:19:38.169Z,22.24
2022-08-18T19:22:19.526Z,22.20
2022-08-18T19:24:54.401Z,22.17
2022-08-18T19:27:29.001Z,22.15
2022-08-18T19:30:01.359Z,22.14
2022-08-18T19:32:38.516Z,22.11
2022-08-18T19:35:11.868Z,22.09
2022-08-18T19:38:01.995Z,22.07
2022-08-18T19:40:54.478Z,22.05
2022-08-18T19:43:53.610Z,22.03
2022-08-18T19:47:08.860Z,22.02
2022-08-18T19:49:56.391Z,22.03
2022-08-18T19:52:54.517Z,22.05
2022-08-18T19:55:50.181Z,22.06
2022-08-18T19:59:12.863Z,22.06
2022-08-18T20:02:08.659Z,22.07
2022-08-18T20:04:58.014Z,22.06
2022-08-18T20:07:27.283Z,22.06
2022-08-18T20:10:15.898Z,22.03
2022-08-18T20:13:13.987Z,22.03
2022-08-18T20:16:13.305Z,22.04
2022-08-18T20:18:49.057Z,22.05
2022-08-18T20:21:15.802Z,22.04
2022-08-18T20:24:13.807Z,22.05
2022-08-18T20:26:43.454Z,22.06
2022-08-18T20:29:14.746Z,22.07
2022-08-18T20:31:58.201Z,22.08
2022-08-18T20:34:27.911Z,22.08
2022-08-18T20:36:57.649Z,22.09
2022-08-18T20:39:45.084Z,22.09
2022-08-18T20:42:20.762Z,22.11
2022-08-18T20:44:50.235Z,22.12
2022-08-18T20:47:47.673Z,22.12
2022-08-18T20:50:33.765Z,22.11
2022-08-18T20:53:21.908Z,22.13
2022-08-18T20:56:31.955Z,22.13
2022-08-18T20:59:09.225Z,22.11
2022-08-18T21:01:36.761Z,22.12
2022-08-18T21:04:03.586Z,22.10
2022-08-18T21:06:34.634Z,22.09
2022-08-18T21:09:01.653Z,22.10
2022-08-18T21:11:36.112Z,22.10
2022-08-18T21:14:03.770Z,22.10
2022-08-18T21:16:38.584Z,22.09
2022-08-18T21:19:18.217Z,22.09
2022-08-18T21:21:48.811Z,22.08
2022-08-18T21:24:29.553Z,22.08
2022-08-18T21:27:03.972Z,22.08
2022-08-18T21:29:46.899Z,22.07
2022-08-18T21:32:22.702Z,22.05
2022-08-18T21:34:49.798Z,22.05
2022-08-18T21:37:18.787Z,22.04
2022-08-18T21:39:54.677Z,22.05
2022-08-18T21:42:29.243Z,22.03
2022-08-18T21:45:00.554Z,22.02
2022-08-18T21:47:33.730Z,22.01
2022-08-18T21:50:31.205Z,21.98
2022-08-18T21:53:01.377Z,21.96
2022-08-18T21:55:35.532Z,21.94
2022-08-18T21:58:16.624Z,21.90
2022-08-18T22:00:47.628Z,21.87
2022-08-18T22:03:16.752Z,21.85
2022-08-18T22:05:58.994Z,21.82
2022-08-18T22:08:32.906Z,21.78
2022-08-18T22:11:43.540Z,21.76
2022-08-18T22:14:53.687Z,21.73
2022-08-18T22:17:42.007Z,21.70
2022-08-18T22:21:10.404Z,21.68
2022-08-18T22:24:02.631Z,21.67
2022-08-18T22:26:37.615Z,21.63
2022-08-18T22:29:08.193Z,21.61
2022-08-18T22:31:43.278Z,21.58
2022-08-18T22:34:27.062Z,21.53
2022-08-18T22:36:59.815Z,21.50
2022-08-18T22:39:39.089Z,21.45
2022-08-18T22:42:07.431Z,21.41
2022-08-18T22:44:34.220Z,21.37
2022-08-18T22:47:01.078Z,21.35
2022-08-18T22:49:27.576Z,21.32
2022-08-18T22:51:55.112Z,21.29
2022-08-18T22:54:23.525Z,21.26
2022-08-18T22:56:55.172Z,21.22
2022-08-18T22:59:25.619Z,21.20
2022-08-18T23:01:55.042Z,21.19
2022-08-18T23:04:24.618Z,21.19
2022-08-18T23:06:52.449Z,21.18
2022-08-18T23:09:31.794Z,21.17
2022-08-18T23:12:02.013Z,21.15
2022-08-18T23:14:32.947Z,21.12
2022-08-18T23:17:01.590Z,21.13
2022-08-18T23:19:31.411Z,21.12
2022-08-18T23:21:59.814Z,21.12
2022-08-18T23:24:26.465Z,21.14
2022-08-18T23:26:53.121Z,21.15
2022-08-18T23:29:21.434Z,21.15
2022-08-18T23:31:49.633Z,21.14
2022-08-18T23:34:18.579Z,21.15
2022-08-18T23:36:51.267Z,21.13
2022-08-18T23:39:18.007Z,21.11
2022-08-18T23:41:45.076Z,21.09
2022-08-18T23:44:13.771Z,21.08
2022-08-18T23:46:43.787Z,21.07
2022-08-18T23:49:14.937Z,21.05
2022-08-18T23:51:45.230Z,21.04
2022-08-18T23:54:20.752Z,21.03
2022-08-18T23:56:48.352Z,21.01
2022-08-18T23:59:17.773Z,21.00
